^^
Mint Hill Weather Station Historical Data
 
Daily Summary for December 20, 2014 Units:  English    Metric   Both
« Previous Day
Next Day »
Daily Weekly Monthly Yearly Custom
  Current: High: Low: Average:
Temperature: 44.0 °F 45.0 °F 39.9 °F 42.1 °F
Dew Point: 37.6 °F 38.6 °F 33.0 °F 36.1 °F
Humidity: 78% 90% 71% 79%
Wind Speed: 1.0mph 2.2mph 0.0mph 0.3mph
Wind Gust: 2.3mph 4.6mph - -
WindEast - - ESE
Pressure: 30.20 in 30.25 in 30.16 in -
Precipitation: 0.02 in      
Historical Graphs
 
 
Tabular Data for December 20, 2014
Time Temperature Dew Point Pressure Wind Wind Speed Wind Gust Humidity Rainfall Rate (Hourly) solar Conditions
00:00 41.5 °F 35.8 °F 30.17 in Calm     80% 0.00 in 0.0 W/m2 CLR
00:05 41.5 °F 35.8 °F 30.17 in Calm   1.0 mph 80% 0.00 in 0.0 W/m2 CLR
00:10 41.4 °F 35.4 °F 30.16 in Calm     79% 0.00 in 0.0 W/m2 CLR
00:15 41.4 °F 34.7 °F 30.17 in Calm     77% 0.00 in 0.0 W/m2 CLR
00:20 41.3 °F 33.6 °F 30.17 in ESE 0.1 mph 1.1 mph 74% 0.00 in 0.0 W/m2 CLR
00:25 41.3 °F 33.6 °F 30.17 in Calm     74% 0.00 in 0.0 W/m2 CLR
00:30 41.3 °F 33.3 °F 30.17 in Calm     73% 0.00 in 0.0 W/m2 CLR
00:35 41.3 °F 33.3 °F 30.17 in Calm     73% 0.00 in 0.0 W/m2 CLR
00:40 41.3 °F 33.0 °F 30.17 in Calm     72% 0.00 in 0.0 W/m2 CLR
00:45 41.3 °F 33.0 °F 30.17 in Calm     72% 0.00 in 0.0 W/m2 CLR
00:50 41.4 °F 34.4 °F 30.17 in ESE 0.1 mph 1.1 mph 76% 0.00 in 0.0 W/m2 CLR
00:55 41.4 °F 34.7 °F 30.17 in Calm   1.1 mph 77% 0.00 in 0.0 W/m2 CLR
01:00 41.4 °F 34.4 °F 30.17 in Calm   1.1 mph 76% 0.00 in 0.0 W/m2 CLR
01:05 41.5 °F 34.5 °F 30.17 in Calm     76% 0.00 in 0.0 W/m2 CLR
01:10 41.4 °F 33.4 °F 30.17 in Calm     73% 0.00 in 0.0 W/m2 CLR
01:15 41.4 °F 34.1 °F 30.16 in Calm     75% 0.00 in 0.0 W/m2 CLR
01:20 41.5 °F 34.5 °F 30.17 in ESE 0.5 mph 2.3 mph 76% 0.00 in 0.0 W/m2 CLR
01:25 41.6 °F 34.6 °F 30.16 in ESE 0.4 mph 1.1 mph 76% 0.00 in 0.0 W/m2 CLR
01:30 41.6 °F 35.2 °F 30.16 in Calm     78% 0.00 in 0.0 W/m2 CLR
01:35 41.6 °F 34.9 °F 30.16 in Calm     77% 0.00 in 0.0 W/m2 CLR
01:40 41.6 °F 34.9 °F 30.16 in East 0.4 mph 2.3 mph 77% 0.00 in 0.0 W/m2 CLR
01:45 41.6 °F 34.6 °F 30.17 in ESE 0.4 mph 1.0 mph 76% 0.00 in 0.0 W/m2 CLR
01:50 41.6 °F 34.3 °F 30.17 in Calm     75% 0.00 in 0.0 W/m2 CLR
01:55 41.6 °F 34.3 °F 30.17 in ESE 0.2 mph 1.1 mph 75% 0.00 in 0.0 W/m2 CLR
02:00 41.6 °F 34.3 °F 30.17 in Calm     75% 0.00 in 0.0 W/m2 CLR
02:05 41.6 °F 34.3 °F 30.17 in Calm     75% 0.00 in 0.0 W/m2 FEW
02:10 41.6 °F 33.9 °F 30.17 in Calm   1.1 mph 74% 0.00 in 0.0 W/m2 FEW
02:15 41.6 °F 33.9 °F 30.16 in ESE 0.2 mph 2.3 mph 74% 0.00 in 0.0 W/m2 FEW
02:20 41.7 °F 33.7 °F 30.16 in Calm   1.1 mph 73% 0.00 in 0.0 W/m2 FEW
02:25 41.7 °F 33.7 °F 30.16 in Calm     73% 0.00 in 0.0 W/m2 FEW
02:30 41.8 °F 33.4 °F 30.16 in East 0.4 mph 1.1 mph 72% 0.00 in 0.0 W/m2 FEW
02:35 41.8 °F 33.4 °F 30.16 in Calm     72% 0.00 in 0.0 W/m2 FEW
02:40 41.9 °F 34.2 °F 30.16 in Calm     74% 0.00 in 0.0 W/m2 FEW
02:45 42.0 °F 34.3 °F 30.16 in Calm   1.1 mph 74% 0.00 in 0.0 W/m2 FEW
02:50 42.0 °F 34.0 °F 30.17 in Calm     73% 0.00 in 0.0 W/m2 FEW
02:55 42.0 °F 34.0 °F 30.17 in Calm     73% 0.00 in 0.0 W/m2 FEW
03:00 42.0 °F 34.0 °F 30.17 in Calm     73% 0.00 in 0.0 W/m2 FEW
03:05 42.0 °F 33.6 °F 30.17 in Calm     72% 0.00 in 0.0 W/m2 BKN
03:10 42.0 °F 34.0 °F 30.17 in Calm     73% 0.00 in 0.0 W/m2 BKN
03:15 42.1 °F 33.4 °F 30.18 in Calm     71% 0.00 in 0.0 W/m2 BKN
03:20 42.0 °F 33.3 °F 30.18 in Calm     71% 0.00 in 0.0 W/m2 BKN
03:25 42.1 °F 33.4 °F 30.18 in Calm     71% 0.00 in 0.0 W/m2 BKN
03:30 42.1 °F 33.4 °F 30.18 in Calm     71% 0.00 in 0.0 W/m2 BKN
03:35 42.1 °F 33.7 °F 30.17 in ESE 0.2 mph 1.1 mph 72% 0.00 in 0.0 W/m2 BKN
03:41 42.1 °F 33.4 °F 30.18 in ESE 0.3 mph 1.1 mph 71% 0.00 in 0.0 W/m2 BKN
03:46 42.1 °F 33.4 °F 30.18 in Calm     71% 0.00 in 0.0 W/m2 BKN
03:51 42.1 °F 33.4 °F 30.18 in ESE 0.1 mph 1.1 mph 71% 0.00 in 0.0 W/m2 BKN
03:56 42.1 °F 33.4 °F 30.18 in Calm     71% 0.00 in 0.0 W/m2 BKN
04:01 42.1 °F 33.7 °F 30.17 in Calm     72% 0.00 in 0.0 W/m2 BKN
04:06 42.0 °F 33.3 °F 30.17 in Calm     71% 0.00 in 0.0 W/m2 OVC
04:11 42.0 °F 33.3 °F 30.17 in Calm     71% 0.00 in 0.0 W/m2 OVC
04:16 42.0 °F 33.6 °F 30.17 in Calm     72% 0.00 in 0.0 W/m2 OVC
04:21 41.9 °F 33.2 °F 30.17 in ESE 0.1 mph 1.1 mph 71% 0.00 in 0.0 W/m2 OVC
04:26 41.9 °F 33.2 °F 30.17 in Calm     71% 0.00 in 0.0 W/m2 OVC
04:31 41.9 °F 33.2 °F 30.17 in Calm     71% 0.00 in 0.0 W/m2 OVC
04:36 41.9 °F 33.5 °F 30.17 in Calm     72% 0.00 in 0.0 W/m2 OVC
04:41 41.9 °F 34.2 °F 30.17 in ESE 0.1 mph 1.1 mph 74% 0.00 in 0.0 W/m2 OVC
04:46 41.9 °F 33.5 °F 30.17 in Calm     72% 0.00 in 0.0 W/m2 OVC
04:51 41.9 °F 33.5 °F 30.17 in ESE 0.3 mph 1.1 mph 72% 0.00 in 0.0 W/m2 OVC
04:56 41.8 °F 33.4 °F 30.17 in East 0.5 mph 1.1 mph 72% 0.00 in 0.0 W/m2 OVC
05:01 41.8 °F 33.8 °F 30.17 in Calm     73% 0.00 in 0.0 W/m2 OVC
05:06 41.9 °F 33.9 °F 30.17 in ESE 0.6 mph 1.1 mph 73% 0.00 in 0.0 W/m2 OVC
05:11 41.8 °F 33.8 °F 30.17 in ENE 0.5 mph 1.1 mph 73% 0.00 in 0.0 W/m2 OVC
05:16 41.8 °F 33.8 °F 30.17 in Calm     73% 0.00 in 0.0 W/m2 OVC
05:21 41.8 °F 33.8 °F 30.18 in Calm   1.1 mph 73% 0.00 in 0.0 W/m2 OVC
05:26 41.8 °F 34.1 °F 30.18 in Calm     74% 0.00 in 0.0 W/m2 OVC
05:31 41.8 °F 34.1 °F 30.18 in ENE 0.1 mph 1.1 mph 74% 0.00 in 0.0 W/m2 OVC
05:36 41.7 °F 34.0 °F 30.18 in Calm     74% 0.00 in 0.0 W/m2 OVC
05:41 41.7 °F 34.0 °F 30.18 in Calm     74% 0.00 in 0.0 W/m2 OVC
05:46 41.7 °F 34.4 °F 30.18 in ENE 0.1 mph 1.0 mph 75% 0.00 in 0.0 W/m2 OVC
05:51 41.6 °F 34.3 °F 30.19 in Calm   1.1 mph 75% 0.00 in 0.0 W/m2 OVC
05:56 41.6 °F 34.3 °F 30.19 in Calm   1.1 mph 75% 0.00 in 0.0 W/m2 OVC
06:01 41.6 °F 34.9 °F 30.19 in Calm     77% 0.00 in 0.0 W/m2 OVC
06:06 41.6 °F 34.9 °F 30.19 in Calm     77% 0.00 in 0.0 W/m2 -RA
06:11 41.6 °F 35.9 °F 30.19 in Calm     80% 0.00 in 0.0 W/m2 -RA
06:16 41.5 °F 36.1 °F 30.19 in Calm     81% 0.00 in 0.0 W/m2 -RA
06:21 41.5 °F 36.1 °F 30.19 in Calm   1.1 mph 81% 0.00 in 0.0 W/m2 -RA
06:26 41.4 °F 36.3 °F 30.19 in Calm     82% 0.00 in 0.0 W/m2 -RA
06:31 41.3 °F 36.5 °F 30.19 in Calm     83% 0.00 in 0.0 W/m2 -RA
06:36 41.1 °F 36.3 °F 30.19 in Calm     83% 0.00 in 0.0 W/m2 -RA
06:41 41.0 °F 36.2 °F 30.19 in Calm     83% 0.00 in 0.0 W/m2 -RA
06:46 40.9 °F 36.4 °F 30.19 in Calm     84% 0.00 in 0.0 W/m2 -RA
06:51 40.8 °F 36.3 °F 30.19 in Calm     84% 0.00 in 0.0 W/m2 -RA
06:56 40.6 °F 36.1 °F 30.19 in Calm     84% 0.00 in 0.0 W/m2 -RA
07:01 40.5 °F 36.3 °F 30.20 in Calm     85% 0.00 in 0.0 W/m2 -RA
07:06 40.4 °F 36.2 °F 30.20 in Calm     85% 0.00 in 0.0 W/m2 -RA
07:11 40.4 °F 36.2 °F 30.20 in Calm     85% 0.00 in 0.0 W/m2 -RA
07:16 40.2 °F 36.3 °F 30.20 in Calm     86% 0.00 in 0.0 W/m2 -RA
07:21 40.1 °F 36.2 °F 30.21 in Calm     86% 0.00 in 0.0 W/m2 -RA
07:26 40.1 °F 36.2 °F 30.21 in Calm     86% 0.00 in 0.0 W/m2 -RA
07:31 40.0 °F 35.9 °F 30.20 in Calm     85% 0.00 in 0.0 W/m2 -RA
07:36 40.1 °F 36.5 °F 30.20 in Calm     87% 0.00 in 0.0 W/m2 -RA
07:41 40.1 °F 36.5 °F 30.21 in Calm     87% 0.00 in 0.0 W/m2 -RA
07:46 40.1 °F 36.5 °F 30.21 in Calm     87% 0.00 in 0.0 W/m2 -RA
07:51 40.1 °F 36.5 °F 30.22 in Calm     87% 0.00 in 6.0 W/m2 -RA
07:56 40.1 °F 36.5 °F 30.22 in ESE 0.2 mph 1.1 mph 87% 0.00 in 8.4 W/m2 -RA
08:01 40.1 °F 36.5 °F 30.23 in NE 0.4 mph 2.3 mph 87% 0.00 in 10.8 W/m2 OVC
08:06 40.1 °F 36.2 °F 30.23 in NE 0.2 mph 1.1 mph 86% 0.00 in 10.8 W/m2 OVC
08:11 40.1 °F 36.2 °F 30.23 in Calm     86% 0.01 in 10.8 W/m2 RA
08:16 40.1 °F 36.5 °F 30.22 in Calm   1.1 mph 87% 0.01 in 13.2 W/m2 RA
08:21 40.1 °F 36.5 °F 30.22 in Calm     87% 0.01 in 22.8 W/m2 OVC
08:26 40.1 °F 36.8 °F 30.22 in Calm     88% 0.01 in 25.2 W/m2 OVC
08:31 40.1 °F 36.8 °F 30.22 in Calm     88% 0.02 in 30.0 W/m2 RA
08:36 40.0 °F 36.7 °F 30.22 in NE 0.2 mph 1.1 mph 88% 0.02 in 33.6 W/m2 RA
08:41 40.0 °F 37.0 °F 30.22 in Calm     89% 0.02 in 38.4 W/m2 OVC
08:47 40.0 °F 37.0 °F 30.22 in Calm     89% 0.02 in 39.6 W/m2 OVC
08:52 40.0 °F 37.0 °F 30.22 in Calm     89% 0.02 in 39.6 W/m2 OVC
08:57 40.0 °F 37.0 °F 30.22 in Calm     89% 0.02 in 46.8 W/m2 OVC
09:02 39.9 °F 36.9 °F 30.22 in Calm     89% 0.02 in 46.8 W/m2 -RA
09:07 39.9 °F 36.9 °F 30.22 in Calm     89% 0.02 in 46.8 W/m2 -RA
09:12 39.9 °F 37.2 °F 30.23 in Calm     90% 0.01 in 69.6 W/m2 -RA
09:17 40.0 °F 37.3 °F 30.23 in Calm     90% 0.01 in 133.2 W/m2 -RA
09:22 40.2 °F 37.5 °F 30.23 in Calm   1.1 mph 90% 0.01 in 74.4 W/m2 -RA
09:27 40.2 °F 37.5 °F 30.24 in Calm     90% 0.01 in 75.6 W/m2 -RA
09:32 40.3 °F 37.3 °F 30.25 in East 1.0 mph 2.3 mph 89% 0.00 in 44.4 W/m2 -RA
09:37 40.4 °F 37.4 °F 30.25 in Calm     89% 0.00 in 48.0 W/m2 -RA
09:42 40.4 °F 37.4 °F 30.25 in Calm     89% 0.00 in 67.2 W/m2 -RA
09:47 40.5 °F 37.5 °F 30.25 in East 0.1 mph 1.1 mph 89% 0.00 in 74.4 W/m2 -RA
09:52 40.5 °F 37.2 °F 30.25 in Calm     88% 0.00 in 63.6 W/m2 -RA
09:57 40.6 °F 37.3 °F 30.25 in Calm   1.1 mph 88% 0.00 in 50.4 W/m2 -RA
10:02 40.6 °F 37.3 °F 30.25 in Calm     88% 0.00 in 61.2 W/m2 OVC
10:07 40.7 °F 37.4 °F 30.24 in East 0.1 mph   88% 0.00 in 75.6 W/m2 OVC
10:12 40.7 °F 37.4 °F 30.23 in ENE 1.0 mph 2.0 mph 88% 0.00 in 80.4 W/m2 OVC
10:17 40.7 °F 37.1 °F 30.23 in ESE 0.4 mph 2.3 mph 87% 0.00 in 126.0 W/m2 OVC
10:22 40.8 °F 37.5 °F 30.23 in East 0.9 mph 3.5 mph 88% 0.00 in 120.0 W/m2 OVC
10:27 40.9 °F 37.3 °F 30.23 in Calm   2.3 mph 87% 0.00 in 92.4 W/m2 OVC
10:32 41.0 °F 37.4 °F 30.24 in Calm   2.3 mph 87% 0.00 in 189.6 W/m2 OVC
10:37 41.2 °F 37.6 °F 30.24 in ENE 1.1 mph 2.3 mph 87% 0.00 in 150.0 W/m2 OVC
10:42 41.4 °F 37.5 °F 30.24 in ENE 1.5 mph 2.3 mph 86% 0.00 in 103.2 W/m2 OVC
10:47 41.5 °F 37.3 °F 30.24 in ESE 0.9 mph 3.5 mph 85% 0.00 in 153.6 W/m2 OVC
10:52 41.7 °F 37.8 °F 30.25 in ESE 0.3 mph 1.1 mph 86% 0.00 in 100.8 W/m2 OVC
10:57 41.8 °F 37.6 °F 30.25 in East 1.1 mph 2.3 mph 85% 0.00 in 114.0 W/m2 OVC
11:02 41.9 °F 37.7 °F 30.25 in Calm   1.1 mph 85% 0.00 in 100.8 W/m2 OVC
11:07 41.9 °F 37.7 °F 30.25 in ESE 0.4 mph 1.1 mph 85% 0.00 in 122.4 W/m2 OVC
11:12 42.1 °F 37.6 °F 30.24 in East 0.2 mph 1.0 mph 84% 0.00 in 124.8 W/m2 OVC
11:17 42.3 °F 38.1 °F 30.24 in ENE 0.3 mph 2.3 mph 85% 0.00 in 122.4 W/m2 OVC
11:22 42.4 °F 37.9 °F 30.24 in Calm     84% 0.00 in 108.0 W/m2 OVC
11:27 42.5 °F 38.0 °F 30.24 in Calm     84% 0.00 in 116.4 W/m2 OVC
11:32 42.6 °F 38.1 °F 30.24 in ENE 0.6 mph 1.1 mph 84% 0.00 in 136.8 W/m2 OVC
11:37 42.7 °F 38.2 °F 30.24 in ESE 1.1 mph 2.3 mph 84% 0.00 in 152.4 W/m2 OVC
11:42 42.8 °F 37.7 °F 30.24 in ESE 0.2 mph 2.3 mph 82% 0.00 in 128.4 W/m2 OVC
11:47 42.9 °F 38.1 °F 30.23 in East 0.4 mph 1.1 mph 83% 0.00 in 122.4 W/m2 OVC
11:52 43.0 °F 37.6 °F 30.23 in ESE 0.1 mph 1.1 mph 81% 0.00 in 172.8 W/m2 OVC
11:57 43.1 °F 37.3 °F 30.23 in ESE 1.9 mph 4.6 mph 80% 0.00 in 175.2 W/m2 OVC
12:02 43.2 °F 37.4 °F 30.22 in ESE 2.0 mph 3.5 mph 80% 0.00 in 213.6 W/m2 OVC
12:07 43.3 °F 37.9 °F 30.22 in ESE 0.8 mph 1.1 mph 81% 0.00 in 256.8 W/m2 OVC
12:12 43.5 °F 37.7 °F 30.22 in NE 2.2 mph 4.0 mph 80% 0.00 in 272.4 W/m2 OVC
12:17 43.6 °F 38.2 °F 30.22 in SSE 0.1 mph 3.5 mph 81% 0.00 in 187.2 W/m2 OVC
12:22 43.7 °F 37.6 °F 30.22 in East 0.1 mph 2.3 mph 79% 0.00 in 248.4 W/m2 OVC
12:27 43.7 °F 37.6 °F 30.22 in SE 0.4 mph 1.0 mph 79% 0.00 in 183.6 W/m2 OVC
12:32 43.7 °F 37.6 °F 30.22 in SE 0.8 mph 2.3 mph 79% 0.00 in 150.0 W/m2 OVC
12:37 43.8 °F 38.0 °F 30.21 in SE 0.4 mph 1.1 mph 80% 0.00 in 214.8 W/m2 OVC
12:42 43.8 °F 37.7 °F 30.21 in ESE 1.8 mph 3.5 mph 79% 0.00 in 213.6 W/m2 OVC
12:47 43.8 °F 37.7 °F 30.21 in South 0.1 mph 1.1 mph 79% 0.00 in 208.8 W/m2 OVC
12:52 44.0 °F 38.2 °F 30.20 in SE 0.3 mph 2.3 mph 80% 0.00 in 205.2 W/m2 OVC
12:57 44.2 °F 38.1 °F 30.20 in South 1.8 mph 3.5 mph 79% 0.00 in 214.8 W/m2 OVC
13:02 44.4 °F 38.3 °F 30.20 in ESE 1.5 mph 2.3 mph 79% 0.00 in 181.2 W/m2 OVC
13:07 44.5 °F 38.4 °F 30.20 in SE 0.4 mph 2.3 mph 79% 0.00 in 219.6 W/m2 OVC
13:12 44.5 °F 38.1 °F 30.20 in ESE 0.6 mph 2.3 mph 78% 0.00 in 189.6 W/m2 OVC
13:17 44.5 °F 38.4 °F 30.20 in ESE 0.1 mph 1.1 mph 79% 0.00 in 175.2 W/m2 OVC
13:22 44.6 °F 38.5 °F 30.20 in Calm   1.1 mph 79% 0.00 in 156.0 W/m2 OVC
13:27 44.7 °F 37.9 °F 30.20 in East 0.7 mph 2.3 mph 77% 0.00 in 139.2 W/m2 OVC
13:32 44.8 °F 38.4 °F 30.20 in East 1.1 mph 2.3 mph 78% 0.00 in 158.4 W/m2 OVC
13:37 44.7 °F 37.9 °F 30.19 in East 1.1 mph 3.0 mph 77% 0.00 in 156.0 W/m2 OVC
13:42 44.7 °F 37.9 °F 30.19 in Calm   1.1 mph 77% 0.00 in 164.4 W/m2 OVC
13:47 44.7 °F 38.3 °F 30.19 in Calm     78% 0.00 in 139.2 W/m2 OVC
13:52 44.7 °F 38.3 °F 30.19 in East 0.1 mph 1.1 mph 78% 0.00 in 144.0 W/m2 OVC
13:57 44.9 °F 38.5 °F 30.19 in East 0.2 mph 1.1 mph 78% 0.00 in 122.4 W/m2 OVC
14:02 45.0 °F 38.6 °F 30.19 in Calm     78% 0.00 in 128.4 W/m2 OVC
14:07 45.0 °F 38.2 °F 30.19 in East 1.1 mph 2.3 mph 77% 0.00 in 130.8 W/m2 OVC
14:12 44.9 °F 38.1 °F 30.19 in ESE 0.3 mph 1.1 mph 77% 0.00 in 116.4 W/m2 OVC
14:17 44.8 °F 38.0 °F 30.19 in SSE 0.3 mph 1.1 mph 77% 0.00 in 111.6 W/m2 OVC
14:22 44.6 °F 38.2 °F 30.19 in Calm   1.0 mph 78% 0.00 in 114.0 W/m2 OVC
14:27 44.6 °F 38.2 °F 30.19 in SSE 0.3 mph 1.1 mph 78% 0.00 in 120.0 W/m2 OVC
14:32 44.6 °F 38.2 °F 30.19 in East 2.0 mph 3.5 mph 78% 0.00 in 105.6 W/m2 OVC
14:38 44.6 °F 38.2 °F 30.19 in SE 1.1 mph 3.5 mph 78% 0.00 in 108.0 W/m2 OVC
14:43 44.5 °F 38.1 °F 30.19 in ESE 0.2 mph 1.1 mph 78% 0.00 in 108.0 W/m2 OVC
14:48 44.5 °F 38.4 °F 30.19 in ENE 1.4 mph 3.5 mph 79% 0.00 in 116.4 W/m2 OVC
14:53 44.5 °F 38.1 °F 30.19 in East 0.2 mph 1.1 mph 78% 0.00 in 111.6 W/m2 OVC
14:58 44.5 °F 38.1 °F 30.19 in SSW 0.7 mph 3.0 mph 78% 0.00 in 105.6 W/m2 OVC
15:03 44.5 °F 38.4 °F 30.19 in ESE 0.4 mph 1.1 mph 79% 0.00 in 94.8 W/m2 OVC
15:08 44.5 °F 38.4 °F 30.19 in SE 0.9 mph 2.0 mph 79% 0.00 in 91.2 W/m2 OVC
15:13 44.5 °F 38.4 °F 30.19 in East 0.8 mph 2.3 mph 79% 0.00 in 86.4 W/m2 OVC
15:18 44.4 °F 38.3 °F 30.19 in Calm     79% 0.00 in 80.4 W/m2 OVC
15:23 44.5 °F 38.1 °F 30.19 in SE 1.1 mph 2.3 mph 78% 0.00 in 82.8 W/m2 OVC
15:28 44.4 °F 38.0 °F 30.19 in East 1.9 mph 3.0 mph 78% 0.00 in 72.0 W/m2 OVC
15:33 44.4 °F 37.6 °F 30.19 in ESE 1.4 mph 2.3 mph 77% 0.00 in 69.6 W/m2 OVC
15:38 44.3 °F 37.5 °F 30.19 in East 0.9 mph 2.3 mph 77% 0.00 in 64.8 W/m2 OVC
15:43 44.3 °F 37.9 °F 30.19 in Calm     78% 0.00 in 61.2 W/m2 OVC
15:48 44.3 °F 37.9 °F 30.19 in East 0.5 mph 2.3 mph 78% 0.00 in 61.2 W/m2 OVC
15:53 44.3 °F 37.5 °F 30.19 in ESE 1.0 mph 3.5 mph 77% 0.00 in 56.4 W/m2 OVC
15:58 44.2 °F 37.8 °F 30.19 in ESE 0.1 mph   78% 0.00 in 55.2 W/m2 OVC
16:03 44.2 °F 37.8 °F 30.19 in Calm   2.3 mph 78% 0.00 in 48.0 W/m2 OVC
16:08 44.2 °F 37.8 °F 30.20 in NE 1.3 mph 2.3 mph 78% 0.00 in 46.8 W/m2 OVC
16:13 44.2 °F 37.8 °F 30.20 in SE 0.8 mph 2.3 mph 78% 0.00 in 39.6 W/m2 OVC
16:18 44.1 °F 37.7 °F 30.20 in ESE 1.5 mph 2.0 mph 78% 0.00 in 38.4 W/m2 OVC
16:23 44.0 °F 37.6 °F 30.20 in ESE 0.5 mph 1.1 mph 78% 0.00 in 33.6 W/m2 OVC
16:28 44.0 °F 37.6 °F 30.20 in East 1.0 mph 2.3 mph 78% 0.00 in 27.6 W/m2 OVC
Mint Hill, North Carolina, USA
Compliments of Weather Underground